createdAt,value
2018-12-26T00:03:35.195Z,23.50
2018-12-26T00:06:23.961Z,25.10
2018-12-26T00:09:12.767Z,25.50
2018-12-26T00:12:01.559Z,26.17
2018-12-26T00:14:50.326Z,23.87
2018-12-26T00:17:32.119Z,24.20
2018-12-26T00:20:20.948Z,25.07
2018-12-26T00:23:09.728Z,23.30
2018-12-26T00:26:01.705Z,25.37
2018-12-26T00:28:49.324Z,25.40
2018-12-26T00:31:38.086Z,25.13
2018-12-26T00:34:27.036Z,24.50
2018-12-26T00:37:15.834Z,23.50
2018-12-26T00:43:33.396Z,19.33
2018-12-26T00:46:22.199Z,23.80
2018-12-26T00:49:10.992Z,24.43
2018-12-26T00:51:59.761Z,22.57
2018-12-26T00:54:48.520Z,22.23
2018-12-26T00:57:37.324Z,22.53
2018-12-26T01:00:26.079Z,21.33
2018-12-26T01:03:14.873Z,23.37
2018-12-26T01:06:03.629Z,18.17
2018-12-26T01:08:52.420Z,21.97
2018-12-26T01:11:41.181Z,22.33
2018-12-26T01:14:29.963Z,19.17
2018-12-26T01:17:18.730Z,21.00
2018-12-26T01:19:59.917Z,20.17
2018-12-26T01:22:48.786Z,20.83
2018-12-26T01:25:19.014Z,19.53
2018-12-26T01:27:48.533Z,20.80
2018-12-26T01:30:18.023Z,19.67
2018-12-26T01:32:47.543Z,21.80
2018-12-26T01:35:16.991Z,20.80
2018-12-26T01:37:46.490Z,20.10
2018-12-26T01:40:15.942Z,21.10
2018-12-26T01:42:45.444Z,18.67
2018-12-26T01:45:14.902Z,19.10
2018-12-26T01:47:44.936Z,19.13
2018-12-26T01:50:14.393Z,20.60
2018-12-26T01:52:44.936Z,21.87
2018-12-26T01:55:14.385Z,18.63
2018-12-26T01:57:43.874Z,19.57
2018-12-26T02:00:13.359Z,20.60
2018-12-26T02:02:42.911Z,18.43
2018-12-26T02:05:12.379Z,18.90
2018-12-26T02:07:41.828Z,19.07
2018-12-26T02:10:12.084Z,20.90
2018-12-26T02:12:41.596Z,18.23
2018-12-26T02:15:11.229Z,18.03
2018-12-26T02:17:40.650Z,16.63
2018-12-26T02:20:10.949Z,16.73
2018-12-26T02:22:40.756Z,15.33
2018-12-26T02:25:11.321Z,17.30
2018-12-26T02:27:42.432Z,16.70
2018-12-26T02:30:11.911Z,18.10
2018-12-26T02:32:41.398Z,17.00
2018-12-26T02:35:11.262Z,17.60
2018-12-26T02:37:41.185Z,15.93
2018-12-26T02:40:10.635Z,18.20
2018-12-26T02:42:40.111Z,17.33
2018-12-26T02:45:09.639Z,17.73
2018-12-26T02:47:39.128Z,18.57
2018-12-26T02:50:10.258Z,18.77
2018-12-26T02:52:39.802Z,16.83
2018-12-26T02:55:09.344Z,17.53
2018-12-26T02:57:38.822Z,17.87
2018-12-26T03:00:10.033Z,17.10
2018-12-26T03:02:39.527Z,17.23
2018-12-26T03:05:08.989Z,16.27
2018-12-26T03:07:38.473Z,16.17
2018-12-26T03:10:08.570Z,17.20
2018-12-26T03:12:38.031Z,17.67
2018-12-26T03:15:08.653Z,18.33
2018-12-26T03:17:38.518Z,15.67
2018-12-26T03:20:07.980Z,17.17
2018-12-26T03:22:37.445Z,17.23
2018-12-26T03:25:07.084Z,15.57
2018-12-26T03:27:38.253Z,17.00
2018-12-26T03:30:09.466Z,14.27
2018-12-26T03:32:39.426Z,16.17
2018-12-26T03:35:10.196Z,17.07
2018-12-26T03:37:39.991Z,16.63
2018-12-26T03:40:10.114Z,17.53
2018-12-26T03:42:39.574Z,14.70
2018-12-26T03:45:09.203Z,15.70
2018-12-26T03:47:39.210Z,18.17
2018-12-26T03:50:09.356Z,15.30
2018-12-26T03:52:39.483Z,16.13
2018-12-26T03:55:08.980Z,17.67
2018-12-26T03:57:38.442Z,15.30
2018-12-26T04:00:10.263Z,16.43
2018-12-26T04:02:39.716Z,15.13
2018-12-26T04:05:09.646Z,14.43
2018-12-26T04:07:39.983Z,13.87
2018-12-26T04:10:09.587Z,15.07
2018-12-26T04:12:39.189Z,13.53
2018-12-26T04:15:08.807Z,13.50
2018-12-26T04:17:38.395Z,12.97
2018-12-26T04:20:07.968Z,14.70
2018-12-26T04:22:37.699Z,14.83
2018-12-26T04:25:07.269Z,13.60
2018-12-26T04:27:36.797Z,12.83
2018-12-26T04:30:10.521Z,12.30
2018-12-26T04:32:40.128Z,11.00
2018-12-26T04:35:09.558Z,11.67
2018-12-26T04:37:58.329Z,11.23
2018-12-26T04:40:47.158Z,13.80
2018-12-26T04:43:28.816Z,12.30
2018-12-26T04:46:17.586Z,10.33
2018-12-26T04:49:06.364Z,11.97
2018-12-26T04:51:55.135Z,14.10
2018-12-26T04:54:43.916Z,11.77
2018-12-26T04:57:32.690Z,10.97
2018-12-26T05:00:21.475Z,11.67
2018-12-26T05:03:10.246Z,11.80
2018-12-26T05:05:59.014Z,11.87
2018-12-26T05:08:47.813Z,11.70
2018-12-26T05:11:36.961Z,10.63
2018-12-26T05:14:25.858Z,11.53
2018-12-26T05:17:14.661Z,10.30
2018-12-26T05:20:03.437Z,11.30
2018-12-26T05:22:32.858Z,9.23
2018-12-26T05:25:02.301Z,9.93
2018-12-26T05:27:46.342Z,9.07
2018-12-26T05:30:35.177Z,8.40
2018-12-26T05:33:23.968Z,8.87
2018-12-26T05:36:12.838Z,7.97
2018-12-26T05:39:01.605Z,9.03
2018-12-26T05:41:50.377Z,8.47
2018-12-26T05:44:39.153Z,8.37
2018-12-26T05:47:27.918Z,7.47
2018-12-26T05:50:16.696Z,7.03
2018-12-26T05:53:05.464Z,7.70
2018-12-26T05:55:54.237Z,7.80
2018-12-26T05:58:43.004Z,6.97
2018-12-26T06:01:24.533Z,5.90
2018-12-26T06:04:13.309Z,6.43
2018-12-26T06:07:02.081Z,6.90
2018-12-26T06:09:50.880Z,8.00
2018-12-26T06:12:39.647Z,6.20
2018-12-26T06:15:28.428Z,7.53
2018-12-26T06:18:17.194Z,6.43
2018-12-26T06:21:05.965Z,8.63
2018-12-26T06:23:54.770Z,6.97
2018-12-26T06:26:43.610Z,6.83
2018-12-26T06:29:32.381Z,7.37
2018-12-26T06:32:21.142Z,8.10
2018-12-26T06:34:50.631Z,7.33
2018-12-26T06:37:39.386Z,6.97
2018-12-26T06:40:28.395Z,7.23
2018-12-26T06:43:17.143Z,6.27
2018-12-26T06:45:46.585Z,7.00
2018-12-26T06:48:35.393Z,7.10
2018-12-26T06:51:04.827Z,7.23
2018-12-26T06:53:53.659Z,5.90
2018-12-26T06:59:37.248Z,7.20
2018-12-26T07:02:06.697Z,7.53
2018-12-26T07:04:36.120Z,6.27
2018-12-26T07:07:05.643Z,6.63
2018-12-26T07:09:35.065Z,7.00
2018-12-26T07:12:04.500Z,6.63
2018-12-26T07:14:33.929Z,7.40
2018-12-26T07:17:03.358Z,7.47
2018-12-26T07:19:32.783Z,7.70
2018-12-26T07:22:02.230Z,10.30
2018-12-26T07:24:31.661Z,8.40
2018-12-26T07:27:01.102Z,7.27
2018-12-26T07:29:30.530Z,7.90
2018-12-26T07:31:59.992Z,8.10
2018-12-26T07:34:29.415Z,9.13
2018-12-26T07:36:58.855Z,7.20
2018-12-26T07:39:28.281Z,9.13
2018-12-26T07:41:57.724Z,6.70
2018-12-26T07:44:27.152Z,6.93
2018-12-26T07:46:56.586Z,7.30
2018-12-26T07:49:26.012Z,7.60
2018-12-26T07:51:55.450Z,8.03
2018-12-26T07:54:24.880Z,7.30
2018-12-26T07:56:54.321Z,9.27
2018-12-26T07:59:23.736Z,9.87
2018-12-26T08:01:53.248Z,9.70
2018-12-26T08:04:22.687Z,9.90
2018-12-26T08:06:52.122Z,10.03
2018-12-26T08:09:21.544Z,9.70
2018-12-26T08:11:51.015Z,9.87
2018-12-26T08:14:20.449Z,9.80
2018-12-26T08:16:49.876Z,10.13
2018-12-26T08:19:19.299Z,9.73
2018-12-26T08:21:49.121Z,11.47
2018-12-26T08:24:18.619Z,10.97
2018-12-26T08:26:48.063Z,12.53
2018-12-26T08:29:17.491Z,11.17
2018-12-26T08:31:46.927Z,12.13
2018-12-26T08:34:16.348Z,12.17
2018-12-26T08:36:45.777Z,16.03
2018-12-26T08:39:15.208Z,11.53
2018-12-26T08:41:44.645Z,11.40
2018-12-26T08:44:14.074Z,9.20
2018-12-26T08:46:43.565Z,8.93
2018-12-26T08:49:12.997Z,9.43
2018-12-26T08:51:42.425Z,9.00
2018-12-26T08:54:11.846Z,8.30
2018-12-26T08:56:41.275Z,9.27
2018-12-26T08:59:10.711Z,8.27
2018-12-26T09:01:40.132Z,9.67
2018-12-26T09:04:10.914Z,9.50
2018-12-26T09:06:40.741Z,7.47
2018-12-26T09:09:10.178Z,7.80
2018-12-26T09:11:39.625Z,7.47
2018-12-26T09:14:09.041Z,7.70
2018-12-26T09:16:38.469Z,7.97
2018-12-26T09:19:07.921Z,7.90
2018-12-26T09:21:37.349Z,8.70
2018-12-26T09:24:06.828Z,8.00
2018-12-26T09:26:36.262Z,7.00
2018-12-26T09:29:05.693Z,7.00
2018-12-26T09:31:35.119Z,7.40
2018-12-26T09:34:04.547Z,7.43
2018-12-26T09:36:33.975Z,5.63
2018-12-26T09:39:04.362Z,5.57
2018-12-26T09:41:33.787Z,6.27
2018-12-26T09:44:03.225Z,6.47
2018-12-26T09:46:32.644Z,5.80
2018-12-26T09:49:02.075Z,6.63
2018-12-26T09:51:31.492Z,6.17
2018-12-26T09:54:00.994Z,6.60
2018-12-26T09:56:30.432Z,6.57
2018-12-26T09:58:59.865Z,6.43
2018-12-26T10:01:29.288Z,5.40
2018-12-26T10:03:58.731Z,8.43
2018-12-26T10:06:28.152Z,5.10
2018-12-26T10:08:57.572Z,5.83
2018-12-26T10:11:26.994Z,4.73
2018-12-26T10:13:56.428Z,5.20
2018-12-26T10:16:25.849Z,5.27
2018-12-26T10:18:55.268Z,5.40
2018-12-26T10:21:24.697Z,6.37
2018-12-26T10:23:54.123Z,7.37
2018-12-26T10:26:23.556Z,5.50
2018-12-26T10:29:00.801Z,5.10
2018-12-26T10:31:24.118Z,5.70
2018-12-26T10:33:53.593Z,6.10
2018-12-26T10:36:23.019Z,5.77
2018-12-26T10:38:52.440Z,4.93
2018-12-26T10:41:21.871Z,5.57
2018-12-26T10:43:51.295Z,6.37
2018-12-26T10:46:20.723Z,5.67
2018-12-26T10:48:50.137Z,4.63
2018-12-26T10:51:19.561Z,8.73
2018-12-26T10:53:48.994Z,10.43
2018-12-26T10:56:18.447Z,5.47
2018-12-26T10:58:47.883Z,5.30
2018-12-26T11:01:17.305Z,4.90
2018-12-26T11:03:46.753Z,4.43
2018-12-26T11:06:16.215Z,4.90
2018-12-26T11:08:45.651Z,5.03
2018-12-26T11:11:15.083Z,5.07
2018-12-26T11:13:44.509Z,6.60
2018-12-26T11:16:14.625Z,4.67
2018-12-26T11:18:44.072Z,4.80
2018-12-26T11:21:13.506Z,5.57
2018-12-26T11:23:42.978Z,5.40
2018-12-26T11:26:12.408Z,5.50
2018-12-26T11:28:41.854Z,6.17
2018-12-26T11:31:11.300Z,6.77
2018-12-26T11:33:40.763Z,6.37
2018-12-26T11:36:10.247Z,6.20
2018-12-26T11:38:39.700Z,6.53
2018-12-26T11:41:09.128Z,5.07
2018-12-26T11:43:38.598Z,5.23
2018-12-26T11:46:08.033Z,6.07
2018-12-26T11:48:37.487Z,6.87
2018-12-26T11:51:06.913Z,6.70
2018-12-26T11:53:36.364Z,8.47
2018-12-26T11:56:05.819Z,10.13
2018-12-26T11:58:35.267Z,9.13
2018-12-26T12:01:04.695Z,11.10
2018-12-26T12:03:34.159Z,11.80
2018-12-26T12:06:03.573Z,12.07
2018-12-26T12:08:33.060Z,12.20
2018-12-26T12:11:02.472Z,12.77
2018-12-26T12:13:31.952Z,12.63
2018-12-26T12:16:01.387Z,12.40
2018-12-26T12:18:30.907Z,12.43
2018-12-26T12:21:00.331Z,13.50
2018-12-26T12:23:29.800Z,12.93
2018-12-26T12:25:59.304Z,14.33
2018-12-26T12:28:28.766Z,14.03
2018-12-26T12:30:58.222Z,14.00
2018-12-26T12:33:27.679Z,14.00
2018-12-26T12:35:57.116Z,15.23
2018-12-26T12:38:26.551Z,13.13
2018-12-26T12:40:55.988Z,15.30
2018-12-26T12:43:25.482Z,14.33
2018-12-26T12:45:54.929Z,14.60
2018-12-26T12:48:24.529Z,15.13
2018-12-26T12:50:53.959Z,14.73
2018-12-26T12:53:23.384Z,13.33
2018-12-26T12:55:52.818Z,14.47
2018-12-26T12:58:22.248Z,15.03
2018-12-26T13:01:09.142Z,14.20
2018-12-26T13:03:57.944Z,14.30
2018-12-26T13:06:46.713Z,14.23
2018-12-26T13:09:35.484Z,13.50
2018-12-26T13:12:24.290Z,14.13
2018-12-26T13:15:13.264Z,15.20
2018-12-26T13:17:42.714Z,13.73
2018-12-26T13:20:12.232Z,14.90
2018-12-26T13:22:41.743Z,14.07
2018-12-26T13:25:11.294Z,15.17
2018-12-26T13:27:40.697Z,15.17
2018-12-26T13:30:11.726Z,13.80
2018-12-26T13:32:41.535Z,15.00
2018-12-26T13:35:11.449Z,13.77
2018-12-26T13:37:44.541Z,15.07
2018-12-26T13:40:14.088Z,14.60
2018-12-26T13:42:43.544Z,14.67
2018-12-26T13:45:13.063Z,19.47
2018-12-26T13:47:42.519Z,15.90
2018-12-26T13:50:12.043Z,15.03
2018-12-26T13:52:41.488Z,15.37
2018-12-26T13:55:12.139Z,15.93
2018-12-26T13:57:41.586Z,15.87
2018-12-26T14:00:11.900Z,16.00
2018-12-26T14:02:41.358Z,17.23
2018-12-26T14:05:10.851Z,16.77
2018-12-26T14:07:40.400Z,17.20
2018-12-26T14:10:11.599Z,16.77
2018-12-26T14:12:41.080Z,17.00
2018-12-26T14:15:11.339Z,18.53
2018-12-26T14:17:40.789Z,18.17
2018-12-26T14:20:10.428Z,16.83
2018-12-26T14:22:39.908Z,19.17
2018-12-26T14:25:10.165Z,17.27
2018-12-26T14:27:39.653Z,17.67
2018-12-26T14:30:11.328Z,19.00
2018-12-26T14:32:40.985Z,18.03
2018-12-26T14:35:10.493Z,17.43
2018-12-26T14:37:39.976Z,17.50
2018-12-26T14:40:09.479Z,17.87
2018-12-26T14:42:39.496Z,18.40
2018-12-26T14:45:09.089Z,18.07
2018-12-26T14:47:38.585Z,17.23
2018-12-26T14:50:08.790Z,19.47
2018-12-26T14:52:38.324Z,18.90
2018-12-26T14:55:07.831Z,18.33
2018-12-26T14:57:37.361Z,18.17
2018-12-26T15:00:07.759Z,17.90
2018-12-26T15:02:37.269Z,19.33
2018-12-26T15:05:06.900Z,18.77
2018-12-26T15:07:36.434Z,18.47
2018-12-26T15:10:06.861Z,18.90
2018-12-26T15:12:36.379Z,21.40
2018-12-26T15:15:07.144Z,20.20
2018-12-26T15:17:36.547Z,18.60
2018-12-26T15:20:07.296Z,19.50
2018-12-26T15:22:36.728Z,21.20
2018-12-26T15:25:06.355Z,19.60
2018-12-26T15:27:35.817Z,21.57
2018-12-26T15:30:06.169Z,21.60
2018-12-26T15:32:35.628Z,20.20
2018-12-26T15:35:05.146Z,19.57
2018-12-26T15:37:34.650Z,20.87
2018-12-26T15:40:06.388Z,19.33
2018-12-26T15:42:35.895Z,21.20
2018-12-26T15:45:06.899Z,22.17
2018-12-26T15:47:36.885Z,19.30
2018-12-26T15:50:08.160Z,20.80
2018-12-26T15:52:37.664Z,20.83
2018-12-26T15:55:07.124Z,20.67
2018-12-26T15:57:38.641Z,20.93
2018-12-26T16:00:09.981Z,21.27
2018-12-26T16:02:39.473Z,21.93
2018-12-26T16:05:08.984Z,21.20
2018-12-26T16:07:38.451Z,22.93
2018-12-26T16:10:08.846Z,20.77
2018-12-26T16:12:38.344Z,24.17
2018-12-26T16:15:09.441Z,25.33
2018-12-26T16:17:38.903Z,21.43
2018-12-26T16:20:10.905Z,23.27
2018-12-26T16:22:40.429Z,25.10
2018-12-26T16:25:10.450Z,23.00
2018-12-26T16:27:39.912Z,25.40
2018-12-26T16:30:10.314Z,24.37
2018-12-26T16:32:39.772Z,25.67
2018-12-26T16:35:09.310Z,24.07
2018-12-26T16:37:38.798Z,23.27
2018-12-26T16:40:08.602Z,24.60
2018-12-26T16:42:38.738Z,22.10
2018-12-26T16:45:08.880Z,25.33
2018-12-26T16:47:38.443Z,24.07
2018-12-26T16:50:08.999Z,22.13
2018-12-26T16:52:38.886Z,24.20
2018-12-26T16:55:10.277Z,24.30
2018-12-26T16:57:39.758Z,23.33
2018-12-26T17:00:14.946Z,23.00
2018-12-26T17:02:44.078Z,23.40
2018-12-26T17:05:14.181Z,22.37
2018-12-26T17:07:43.747Z,27.43
2018-12-26T17:10:18.604Z,22.07
2018-12-26T17:12:48.187Z,21.07
2018-12-26T17:15:17.757Z,25.53
2018-12-26T17:17:47.429Z,23.13
2018-12-26T17:20:17.052Z,26.03
2018-12-26T17:22:46.556Z,23.90
2018-12-26T17:25:19.553Z,24.27
2018-12-26T17:27:49.249Z,57.03
2018-12-26T17:30:18.760Z,56.07
2018-12-26T17:32:48.321Z,41.87
2018-12-26T17:35:17.812Z,35.77
2018-12-26T17:37:47.840Z,28.30
2018-12-26T17:40:17.304Z,28.70
2018-12-26T17:42:46.867Z,28.67
2018-12-26T17:45:23.648Z,26.13
2018-12-26T17:47:53.147Z,23.60
2018-12-26T17:50:47.307Z,26.20
2018-12-26T17:53:39.626Z,26.33
2018-12-26T17:56:25.906Z,28.83
2018-12-26T17:59:21.147Z,28.40
2018-12-26T18:02:06.568Z,33.67
2018-12-26T18:04:36.094Z,27.90
2018-12-26T18:07:06.687Z,25.80
2018-12-26T18:09:36.151Z,27.07
2018-12-26T18:12:11.884Z,29.90
2018-12-26T18:14:38.087Z,27.83
2018-12-26T18:17:07.561Z,27.03
2018-12-26T18:19:37.061Z,27.97
2018-12-26T18:22:06.554Z,30.87
2018-12-26T18:24:36.042Z,28.67
2018-12-26T18:27:05.594Z,30.33
2018-12-26T18:29:35.581Z,30.63
2018-12-26T18:32:05.208Z,28.43
2018-12-26T18:34:34.713Z,32.93
2018-12-26T18:37:04.286Z,32.93
2018-12-26T18:39:34.431Z,28.63
2018-12-26T18:42:03.866Z,28.37
2018-12-26T18:44:33.391Z,33.13
2018-12-26T18:47:03.035Z,36.70
2018-12-26T18:49:32.547Z,28.63
2018-12-26T18:52:03.149Z,31.80
2018-12-26T18:54:32.716Z,49.40
2018-12-26T18:57:02.326Z,70.33
2018-12-26T18:59:31.862Z,54.23
2018-12-26T19:02:01.917Z,37.90
2018-12-26T19:04:31.530Z,41.63
2018-12-26T19:07:01.113Z,35.37
2018-12-26T19:09:30.616Z,33.80
2018-12-26T19:12:00.157Z,30.67
2018-12-26T19:14:29.654Z,31.27
2018-12-26T19:16:59.147Z,38.20
2018-12-26T19:19:28.670Z,33.93
2018-12-26T19:21:58.106Z,34.20
2018-12-26T19:24:27.593Z,35.23
2018-12-26T19:26:57.059Z,31.57
2018-12-26T19:29:26.539Z,32.67
2018-12-26T19:31:56.069Z,34.47
2018-12-26T19:34:25.561Z,34.13
2018-12-26T19:36:55.038Z,36.67
2018-12-26T19:39:24.569Z,38.33
2018-12-26T19:41:54.119Z,34.97
2018-12-26T19:44:23.610Z,34.83
2018-12-26T19:46:54.497Z,35.00
2018-12-26T19:49:24.242Z,30.53
2018-12-26T19:51:53.755Z,30.57
2018-12-26T19:54:23.309Z,30.80
2018-12-26T19:56:52.786Z,48.17
2018-12-26T19:59:22.284Z,34.93
2018-12-26T20:01:51.808Z,32.93
2018-12-26T20:04:21.715Z,37.53
2018-12-26T20:06:51.264Z,39.53
2018-12-26T20:09:26.508Z,32.63
2018-12-26T20:12:00.909Z,29.50
2018-12-26T20:14:30.466Z,35.07
2018-12-26T20:17:00.012Z,39.73
2018-12-26T20:19:29.552Z,34.90
2018-12-26T20:21:59.070Z,38.93
2018-12-26T20:24:28.591Z,34.20
2018-12-26T20:26:58.105Z,38.27
2018-12-26T20:29:27.623Z,33.80
2018-12-26T20:31:58.042Z,33.63
2018-12-26T20:34:27.571Z,35.37
2018-12-26T20:36:57.880Z,31.33
2018-12-26T20:39:27.336Z,36.20
2018-12-26T20:41:56.849Z,37.30
2018-12-26T20:44:26.324Z,36.37
2018-12-26T20:46:55.819Z,54.47
2018-12-26T20:49:25.312Z,35.73
2018-12-26T20:51:54.804Z,36.20
2018-12-26T20:54:24.344Z,38.00
2018-12-26T20:56:53.814Z,35.40
2018-12-26T20:59:23.276Z,51.23
2018-12-26T21:01:52.778Z,36.40
2018-12-26T21:04:22.232Z,35.37
2018-12-26T21:06:51.758Z,33.40
2018-12-26T21:09:22.896Z,39.83
2018-12-26T21:11:52.538Z,37.23
2018-12-26T21:14:22.056Z,38.37
2018-12-26T21:16:55.179Z,41.00
2018-12-26T21:19:22.756Z,39.30
2018-12-26T21:21:53.139Z,36.33
2018-12-26T21:24:22.629Z,39.60
2018-12-26T21:26:52.220Z,40.20
2018-12-26T21:29:21.692Z,36.17
2018-12-26T21:31:51.389Z,35.70
2018-12-26T21:34:20.862Z,36.40
2018-12-26T21:36:50.324Z,37.20
2018-12-26T21:39:20.236Z,37.77
2018-12-26T21:41:50.246Z,36.40
2018-12-26T21:44:20.174Z,34.30
2018-12-26T21:46:50.288Z,38.13
2018-12-26T21:49:19.771Z,36.03
2018-12-26T21:51:49.251Z,36.33
2018-12-26T21:54:18.724Z,54.03
2018-12-26T21:56:48.248Z,36.07
2018-12-26T21:59:17.722Z,35.70
2018-12-26T22:01:47.227Z,34.87
2018-12-26T22:04:16.830Z,43.40
2018-12-26T22:06:46.338Z,31.40
2018-12-26T22:09:16.857Z,33.97
2018-12-26T22:11:46.406Z,32.87
2018-12-26T22:14:15.839Z,29.17
2018-12-26T22:16:45.340Z,30.23
2018-12-26T22:19:15.385Z,31.60
2018-12-26T22:21:44.988Z,37.83
2018-12-26T22:24:14.472Z,31.53
2018-12-26T22:26:44.026Z,30.17
2018-12-26T22:29:13.495Z,29.73
2018-12-26T22:31:43.035Z,30.03
2018-12-26T22:34:12.536Z,30.07
2018-12-26T22:36:42.023Z,34.40
2018-12-26T22:39:11.514Z,28.87
2018-12-26T22:41:41.084Z,35.73
2018-12-26T22:44:10.640Z,36.40
2018-12-26T22:46:40.145Z,29.27
2018-12-26T22:49:09.614Z,29.13
2018-12-26T22:51:42.011Z,29.70
2018-12-26T22:54:10.846Z,28.63
2018-12-26T22:56:40.422Z,29.70
2018-12-26T22:59:09.934Z,30.60
2018-12-26T23:01:39.466Z,25.20
2018-12-26T23:04:08.946Z,26.40
2018-12-26T23:06:38.437Z,26.53
2018-12-26T23:09:08.290Z,26.03
2018-12-26T23:11:37.810Z,28.00
2018-12-26T23:14:07.279Z,26.93
2018-12-26T23:16:36.770Z,26.60
2018-12-26T23:19:06.284Z,28.80
2018-12-26T23:21:35.866Z,29.87
2018-12-26T23:24:06.037Z,28.10
2018-12-26T23:26:35.550Z,28.47
2018-12-26T23:29:05.021Z,31.00
2018-12-26T23:31:34.529Z,25.93
2018-12-26T23:34:03.987Z,29.93
2018-12-26T23:36:33.503Z,33.10
2018-12-26T23:39:02.994Z,30.23
2018-12-26T23:41:32.470Z,29.87
2018-12-26T23:44:01.946Z,29.47
2018-12-26T23:46:31.448Z,30.80
2018-12-26T23:49:00.931Z,26.97
2018-12-26T23:51:30.420Z,29.30
2018-12-26T23:53:59.896Z,31.50
2018-12-26T23:56:29.819Z,27.93
2018-12-26T23:58:59.316Z,32.00
